sensor_id;sensor_type;location;lat;lon;timestamp;temperature;humidity
31979;DHT22;18502;43.574;1.276;2022-12-05T06:49:35;-2.10;99.90
31979;DHT22;18502;43.574;1.276;2022-12-05T06:52:00;-2.10;99.90
31979;DHT22;18502;43.574;1.276;2022-12-05T06:54:26;-2.20;99.90
31979;DHT22;18502;43.574;1.276;2022-12-05T06:56:52;-2.20;99.90
31979;DHT22;18502;43.574;1.276;2022-12-05T06:59:17;-2.20;99.90
31979;DHT22;18502;43.574;1.276;2022-12-05T07:01:43;-2.10;99.90
31979;DHT22;18502;43.574;1.276;2022-12-05T07:04:22;-2.20;99.90
31979;DHT22;18502;43.574;1.276;2022-12-05T07:06:49;-2.20;99.90
31979;DHT22;18502;43.574;1.276;2022-12-05T07:09:16;-2.10;99.90
31979;DHT22;18502;43.574;1.276;2022-12-05T07:11:48;-2.10;99.90
31979;DHT22;18502;43.574;1.276;2022-12-05T07:14:14;-2.10;99.90
31979;DHT22;18502;43.574;1.276;2022-12-05T07:16:39;-2.10;99.90
31979;DHT22;18502;43.574;1.276;2022-12-05T07:19:05;-2.00;99.90
31979;DHT22;18502;43.574;1.276;2022-12-05T07:21:31;-2.00;99.90
31979;DHT22;18502;43.574;1.276;2022-12-05T07:23:57;-2.00;99.90
31979;DHT22;18502;43.574;1.276;2022-12-05T07:26:23;-2.00;99.90
31979;DHT22;18502;43.574;1.276;2022-12-05T07:28:50;-2.00;99.90
31979;DHT22;18502;43.574;1.276;2022-12-05T07:31:21;-1.90;99.90
31979;DHT22;18502;43.574;1.276;2022-12-05T07:33:48;-1.80;99.90
31979;DHT22;18502;43.574;1.276;2022-12-05T07:36:19;-1.80;99.90
31979;DHT22;18502;43.574;1.276;2022-12-05T07:38:45;-1.70;99.90
31979;DHT22;18502;43.574;1.276;2022-12-05T07:41:31;-1.60;99.90
31979;DHT22;18502;43.574;1.276;2022-12-05T07:43:58;-1.50;99.90
31979;DHT22;18502;43.574;1.276;2022-12-05T07:46:26;-1.40;99.90
31979;DHT22;18502;43.574;1.276;2022-12-05T07:48:52;-1.30;99.90
31979;DHT22;18502;43.574;1.276;2022-12-05T07:51:19;-1.30;99.90
31979;DHT22;18502;43.574;1.276;2022-12-05T07:53:46;-1.00;99.90
31979;DHT22;18502;43.574;1.276;2022-12-05T07:56:14;0.80;99.90
31979;DHT22;18502;43.574;1.276;2022-12-05T07:58:42;2.30;99.90
31979;DHT22;18502;43.574;1.276;2022-12-05T08:01:18;3.00;99.90
31979;DHT22;18502;43.574;1.276;2022-12-05T08:03:45;3.20;99.90
31979;DHT22;18502;43.574;1.276;2022-12-05T08:06:14;4.10;99.90
31979;DHT22;18502;43.574;1.276;2022-12-05T08:08:40;3.90;99.90
31979;DHT22;18502;43.574;1.276;2022-12-05T08:11:25;4.70;99.90
31979;DHT22;18502;43.574;1.276;2022-12-05T08:13:52;4.80;99.90
31979;DHT22;18502;43.574;1.276;2022-12-05T08:16:20;4.60;99.90
31979;DHT22;18502;43.574;1.276;2022-12-05T08:18:46;4.90;99.90
31979;DHT22;18502;43.574;1.276;2022-12-05T08:21:17;6.10;99.90
31979;DHT22;18502;43.574;1.276;2022-12-05T08:23:43;6.90;99.90
31979;DHT22;18502;43.574;1.276;2022-12-05T08:26:13;7.50;97.70
31979;DHT22;18502;43.574;1.276;2022-12-05T08:28:39;7.90;96.00
31979;DHT22;18502;43.574;1.276;2022-12-05T08:31:16;8.20;95.40
31979;DHT22;18502;43.574;1.276;2022-12-05T08:33:43;6.70;96.70
31979;DHT22;18502;43.574;1.276;2022-12-05T08:36:11;6.00;99.40
31979;DHT22;18502;43.574;1.276;2022-12-05T08:38:37;6.90;98.20
31979;DHT22;18502;43.574;1.276;2022-12-05T08:41:05;6.20;98.40
31979;DHT22;18502;43.574;1.276;2022-12-05T08:43:32;6.30;98.80
31979;DHT22;18502;43.574;1.276;2022-12-05T08:45:58;6.50;99.70
31979;DHT22;18502;43.574;1.276;2022-12-05T08:48:25;6.40;98.60
31979;DHT22;18502;43.574;1.276;2022-12-05T08:50:50;6.40;99.10
31979;DHT22;18502;43.574;1.276;2022-12-05T08:53:16;6.30;99.90
31979;DHT22;18502;43.574;1.276;2022-12-05T08:55:42;8.00;96.70
31979;DHT22;18502;43.574;1.276;2022-12-05T08:58:08;7.80;96.30
31979;DHT22;18502;43.574;1.276;2022-12-05T09:00:34;7.90;97.40
31979;DHT22;18502;43.574;1.276;2022-12-05T09:02:59;9.40;94.30
31979;DHT22;18502;43.574;1.276;2022-12-05T09:05:25;10.70;91.20
31979;DHT22;18502;43.574;1.276;2022-12-05T09:07:51;11.40;87.90
31979;DHT22;18502;43.574;1.276;2022-12-05T09:10:17;11.80;85.60
31979;DHT22;18502;43.574;1.276;2022-12-05T09:12:43;12.30;82.20
31979;DHT22;18502;43.574;1.276;2022-12-05T09:15:10;12.50;79.50
31979;DHT22;18502;43.574;1.276;2022-12-05T09:17:36;13.10;77.70
31979;DHT22;18502;43.574;1.276;2022-12-05T09:20:04;12.70;78.70
31979;DHT22;18502;43.574;1.276;2022-12-05T09:22:29;11.60;81.00
31979;DHT22;18502;43.574;1.276;2022-12-05T09:24:55;12.30;79.40
31979;DHT22;18502;43.574;1.276;2022-12-05T09:27:21;11.60;81.30
31979;DHT22;18502;43.574;1.276;2022-12-05T09:29:46;12.70;77.30
31979;DHT22;18502;43.574;1.276;2022-12-05T09:32:12;12.20;77.40
31979;DHT22;18502;43.574;1.276;2022-12-05T09:34:38;11.10;80.40
31979;DHT22;18502;43.574;1.276;2022-12-05T09:37:04;11.90;81.10
31979;DHT22;18502;43.574;1.276;2022-12-05T09:39:30;12.80;75.90
31979;DHT22;18502;43.574;1.276;2022-12-05T09:42:06;13.80;74.00
31979;DHT22;18502;43.574;1.276;2022-12-05T09:50:07;13.70;70.30
31979;DHT22;18502;43.574;1.276;2022-12-05T09:52:39;14.30;70.40
31979;DHT22;18502;43.574;1.276;2022-12-05T09:55:16;15.00;67.00
31979;DHT22;18502;43.574;1.276;2022-12-05T09:57:55;16.60;64.20
31979;DHT22;18502;43.574;1.276;2022-12-05T10:00:21;17.30;60.80
31979;DHT22;18502;43.574;1.276;2022-12-05T10:05:46;16.90;57.90
31979;DHT22;18502;43.574;1.276;2022-12-05T10:11:04;15.50;60.40
31979;DHT22;18502;43.574;1.276;2022-12-05T10:13:51;15.90;62.40
31979;DHT22;18502;43.574;1.276;2022-12-05T10:16:33;17.40;59.40
31979;DHT22;18502;43.574;1.276;2022-12-05T10:19:33;18.10;55.90
31979;DHT22;18502;43.574;1.276;2022-12-05T10:22:03;18.50;53.50
31979;DHT22;18502;43.574;1.276;2022-12-05T10:24:40;18.00;52.50
31979;DHT22;18502;43.574;1.276;2022-12-05T10:27:13;18.60;52.90
31979;DHT22;18502;43.574;1.276;2022-12-05T10:29:58;18.70;52.30
31979;DHT22;18502;43.574;1.276;2022-12-05T10:32:47;17.20;53.00
31979;DHT22;18502;43.574;1.276;2022-12-05T10:35:24;16.90;52.90
31979;DHT22;18502;43.574;1.276;2022-12-05T10:37:58;16.20;56.60
31979;DHT22;18502;43.574;1.276;2022-12-05T10:40:54;18.50;52.50
31979;DHT22;18502;43.574;1.276;2022-12-05T10:43:30;19.90;48.20
31979;DHT22;18502;43.574;1.276;2022-12-05T10:45:58;19.30;48.20
31979;DHT22;18502;43.574;1.276;2022-12-05T10:48:24;19.00;49.80
31979;DHT22;18502;43.574;1.276;2022-12-05T10:50:53;18.80;49.80
31979;DHT22;18502;43.574;1.276;2022-12-05T10:53:30;17.20;52.60
31979;DHT22;18502;43.574;1.276;2022-12-05T10:55:57;16.20;56.40
31979;DHT22;18502;43.574;1.276;2022-12-05T10:58:27;16.70;54.30
31979;DHT22;18502;43.574;1.276;2022-12-05T11:01:06;16.40;55.60
31979;DHT22;18502;43.574;1.276;2022-12-05T11:03:38;18.00;53.90
31979;DHT22;18502;43.574;1.276;2022-12-05T11:06:15;18.20;53.60
31979;DHT22;18502;43.574;1.276;2022-12-05T11:08:42;19.40;49.10
31979;DHT22;18502;43.574;1.276;2022-12-05T11:11:22;20.30;48.20
31979;DHT22;18502;43.574;1.276;2022-12-05T11:14:06;20.90;44.30
31979;DHT22;18502;43.574;1.276;2022-12-05T11:16:37;19.60;47.40
31979;DHT22;18502;43.574;1.276;2022-12-05T11:21:44;20.20;46.50
31979;DHT22;18502;43.574;1.276;2022-12-05T11:26:56;21.80;41.30
31979;DHT22;18502;43.574;1.276;2022-12-05T11:29:30;21.90;41.90
31979;DHT22;18502;43.574;1.276;2022-12-05T11:31:56;23.10;39.90
31979;DHT22;18502;43.574;1.276;2022-12-05T11:34:24;23.90;39.10
31979;DHT22;18502;43.574;1.276;2022-12-05T11:37:08;24.60;36.90
31979;DHT22;18502;43.574;1.276;2022-12-05T11:39:35;25.00;33.90
31979;DHT22;18502;43.574;1.276;2022-12-05T11:47:20;24.20;35.00
31979;DHT22;18502;43.574;1.276;2022-12-05T11:55:28;24.10;32.90
31979;DHT22;18502;43.574;1.276;2022-12-05T12:01:06;24.90;31.60
31979;DHT22;18502;43.574;1.276;2022-12-05T12:28:45;24.30;30.10
31979;DHT22;18502;43.574;1.276;2022-12-05T12:36:42;26.90;27.40
31979;DHT22;18502;43.574;1.276;2022-12-05T12:39:39;27.20;27.10
31979;DHT22;18502;43.574;1.276;2022-12-05T12:42:26;26.60;28.20
31979;DHT22;18502;43.574;1.276;2022-12-05T12:50:31;28.50;26.10
31979;DHT22;18502;43.574;1.276;2022-12-05T12:55:43;26.10;28.50
31979;DHT22;18502;43.574;1.276;2022-12-05T13:04:24;26.50;28.50
31979;DHT22;18502;43.574;1.276;2022-12-05T13:06:56;27.70;27.50
31979;DHT22;18502;43.574;1.276;2022-12-05T13:09:35;28.30;27.80
31979;DHT22;18502;43.574;1.276;2022-12-05T13:12:24;28.00;27.30
31979;DHT22;18502;43.574;1.276;2022-12-05T13:15:15;27.30;27.20
31979;DHT22;18502;43.574;1.276;2022-12-05T13:17:42;28.40;26.30
31979;DHT22;18502;43.574;1.276;2022-12-05T13:20:20;29.00;25.30
31979;DHT22;18502;43.574;1.276;2022-12-05T13:22:48;28.30;27.50
31979;DHT22;18502;43.574;1.276;2022-12-05T13:25:15;28.60;26.80
31979;DHT22;18502;43.574;1.276;2022-12-05T13:27:54;29.00;26.50
31979;DHT22;18502;43.574;1.276;2022-12-05T13:30:21;28.90;26.10
31979;DHT22;18502;43.574;1.276;2022-12-05T13:32:54;29.10;25.50
31979;DHT22;18502;43.574;1.276;2022-12-05T13:35:41;28.50;25.80
31979;DHT22;18502;43.574;1.276;2022-12-05T13:38:31;28.70;26.90
31979;DHT22;18502;43.574;1.276;2022-12-05T13:41:16;28.70;26.30
31979;DHT22;18502;43.574;1.276;2022-12-05T13:44:01;29.60;25.80
31979;DHT22;18502;43.574;1.276;2022-12-05T13:46:30;29.50;25.30
31979;DHT22;18502;43.574;1.276;2022-12-05T13:51:41;28.00;27.10
31979;DHT22;18502;43.574;1.276;2022-12-05T13:54:12;28.00;27.40
31979;DHT22;18502;43.574;1.276;2022-12-05T13:56:58;28.40;26.70
31979;DHT22;18502;43.574;1.276;2022-12-05T14:00:19;28.70;26.30
31979;DHT22;18502;43.574;1.276;2022-12-05T14:02:56;29.40;26.00
31979;DHT22;18502;43.574;1.276;2022-12-05T14:12:57;21.70;36.90
31979;DHT22;18502;43.574;1.276;2022-12-05T14:15:37;24.40;33.20
31979;DHT22;18502;43.574;1.276;2022-12-05T14:27:24;28.30;27.50
31979;DHT22;18502;43.574;1.276;2022-12-05T14:32:40;27.40;27.90
31979;DHT22;18502;43.574;1.276;2022-12-05T14:37:54;23.50;33.20
31979;DHT22;18502;43.574;1.276;2022-12-05T14:40:41;21.30;37.00
31979;DHT22;18502;43.574;1.276;2022-12-05T14:43:27;21.30;37.10
31979;DHT22;18502;43.574;1.276;2022-12-05T14:46:03;21.80;37.50
31979;DHT22;18502;43.574;1.276;2022-12-05T14:50:59;22.20;37.50
31979;DHT22;18502;43.574;1.276;2022-12-05T15:12:26;24.60;32.20
31979;DHT22;18502;43.574;1.276;2022-12-05T15:18:13;24.40;32.80
31979;DHT22;18502;43.574;1.276;2022-12-05T15:26:10;21.90;38.70
31979;DHT22;18502;43.574;1.276;2022-12-05T15:28:39;21.50;39.40
31979;DHT22;18502;43.574;1.276;2022-12-05T15:31:06;21.60;39.80
31979;DHT22;18502;43.574;1.276;2022-12-05T15:33:36;20.50;41.80
31979;DHT22;18502;43.574;1.276;2022-12-05T15:36:13;19.00;42.30
31979;DHT22;18502;43.574;1.276;2022-12-05T15:38:40;17.80;46.60
31979;DHT22;18502;43.574;1.276;2022-12-05T15:41:15;16.80;49.30
31979;DHT22;18502;43.574;1.276;2022-12-05T15:43:42;15.80;52.40
31979;DHT22;18502;43.574;1.276;2022-12-05T15:46:20;15.50;54.20
31979;DHT22;18502;43.574;1.276;2022-12-05T15:48:50;15.10;55.90
31979;DHT22;18502;43.574;1.276;2022-12-05T15:51:17;14.80;57.20
31979;DHT22;18502;43.574;1.276;2022-12-05T15:54:06;14.40;58.80
31979;DHT22;18502;43.574;1.276;2022-12-05T15:56:37;14.00;60.40
31979;DHT22;18502;43.574;1.276;2022-12-05T15:59:32;13.60;61.80
31979;DHT22;18502;43.574;1.276;2022-12-05T16:02:04;13.40;62.80
31979;DHT22;18502;43.574;1.276;2022-12-05T16:04:53;13.00;64.60
31979;DHT22;18502;43.574;1.276;2022-12-05T16:07:22;12.80;66.20
31979;DHT22;18502;43.574;1.276;2022-12-05T16:09:50;12.50;67.50
31979;DHT22;18502;43.574;1.276;2022-12-05T16:12:26;12.30;68.80
31979;DHT22;18502;43.574;1.276;2022-12-05T16:14:59;12.10;69.90
31979;DHT22;18502;43.574;1.276;2022-12-05T16:17:28;11.90;71.40
31979;DHT22;18502;43.574;1.276;2022-12-05T16:22:46;11.40;72.70
31979;DHT22;18502;43.574;1.276;2022-12-05T16:25:20;11.20;73.80
31979;DHT22;18502;43.574;1.276;2022-12-05T16:30:39;10.90;75.90
31979;DHT22;18502;43.574;1.276;2022-12-05T16:33:14;10.80;77.10
31979;DHT22;18502;43.574;1.276;2022-12-05T16:35:41;10.60;76.80
31979;DHT22;18502;43.574;1.276;2022-12-05T16:38:20;10.40;77.80
31979;DHT22;18502;43.574;1.276;2022-12-05T16:48:46;9.70;81.30
31979;DHT22;18502;43.574;1.276;2022-12-05T16:53:40;9.50;83.50
31979;DHT22;18502;43.574;1.276;2022-12-05T16:56:13;9.30;84.30
31979;DHT22;18502;43.574;1.276;2022-12-05T16:58:39;9.20;85.70
31979;DHT22;18502;43.574;1.276;2022-12-05T17:01:06;9.10;84.50
31979;DHT22;18502;43.574;1.276;2022-12-05T17:03:33;9.00;85.60
31979;DHT22;18502;43.574;1.276;2022-12-05T17:05:59;8.90;87.70
31979;DHT22;18502;43.574;1.276;2022-12-05T17:08:25;8.90;89.20
31979;DHT22;18502;43.574;1.276;2022-12-05T17:10:51;8.70;87.90
31979;DHT22;18502;43.574;1.276;2022-12-05T17:13:18;8.70;88.90
31979;DHT22;18502;43.574;1.276;2022-12-05T17:15:44;8.60;89.60
31979;DHT22;18502;43.574;1.276;2022-12-05T17:18:16;8.50;89.40
31979;DHT22;18502;43.574;1.276;2022-12-05T17:20:44;8.50;89.00
31979;DHT22;18502;43.574;1.276;2022-12-05T17:23:14;8.40;90.00
31979;DHT22;18502;43.574;1.276;2022-12-05T17:25:47;8.40;90.30
31979;DHT22;18502;43.574;1.276;2022-12-05T17:28:13;8.30;90.20
31979;DHT22;18502;43.574;1.276;2022-12-05T17:30:39;8.20;90.40
31979;DHT22;18502;43.574;1.276;2022-12-05T17:33:05;8.10;90.60
31979;DHT22;18502;43.574;1.276;2022-12-05T17:35:33;7.90;91.10
31979;DHT22;18502;43.574;1.276;2022-12-05T17:38:01;7.90;91.50
31979;DHT22;18502;43.574;1.276;2022-12-05T17:40:27;7.90;91.30
31979;DHT22;18502;43.574;1.276;2022-12-05T17:42:53;8.10;91.10
31979;DHT22;18502;43.574;1.276;2022-12-05T17:45:19;8.10;91.50
31979;DHT22;18502;43.574;1.276;2022-12-05T17:47:44;8.00;90.90
31979;DHT22;18502;43.574;1.276;2022-12-05T17:50:15;7.90;91.40
31979;DHT22;18502;43.574;1.276;2022-12-05T17:52:42;7.80;91.60
31979;DHT22;18502;43.574;1.276;2022-12-05T17:55:18;7.80;91.20
31979;DHT22;18502;43.574;1.276;2022-12-05T17:57:44;7.90;90.70
31979;DHT22;18502;43.574;1.276;2022-12-05T18:00:11;7.90;90.50
31979;DHT22;18502;43.574;1.276;2022-12-05T18:02:37;7.90;90.30
31979;DHT22;18502;43.574;1.276;2022-12-05T18:05:04;7.90;90.20
31979;DHT22;18502;43.574;1.276;2022-12-05T18:07:29;7.90;90.60
31979;DHT22;18502;43.574;1.276;2022-12-05T18:09:55;7.80;91.10
31979;DHT22;18502;43.574;1.276;2022-12-05T18:12:21;7.80;90.70
31979;DHT22;18502;43.574;1.276;2022-12-05T18:14:47;7.70;90.50
31979;DHT22;18502;43.574;1.276;2022-12-05T18:17:13;7.90;87.80
31979;DHT22;18502;43.574;1.276;2022-12-05T18:19:38;8.00;87.80
31979;DHT22;18502;43.574;1.276;2022-12-05T18:22:04;8.10;86.10
31979;DHT22;18502;43.574;1.276;2022-12-05T18:24:30;8.20;86.10
31979;DHT22;18502;43.574;1.276;2022-12-05T18:26:55;8.10;84.80
31979;DHT22;18502;43.574;1.276;2022-12-05T18:29:22;8.20;84.60
31979;DHT22;18502;43.574;1.276;2022-12-05T18:31:48;8.10;84.80
31979;DHT22;18502;43.574;1.276;2022-12-05T18:34:14;8.10;84.40
31979;DHT22;18502;43.574;1.276;2022-12-05T18:36:40;8.00;84.80
31979;DHT22;18502;43.574;1.276;2022-12-05T18:39:06;8.00;84.80
31979;DHT22;18502;43.574;1.276;2022-12-05T18:41:35;7.90;85.10
31979;DHT22;18502;43.574;1.276;2022-12-05T18:44:00;8.00;84.50
31979;DHT22;18502;43.574;1.276;2022-12-05T18:46:26;7.90;85.00
31979;DHT22;18502;43.574;1.276;2022-12-05T18:48:52;7.80;85.60
31979;DHT22;18502;43.574;1.276;2022-12-05T18:51:22;7.70;85.90
31979;DHT22;18502;43.574;1.276;2022-12-05T18:53:50;7.70;85.40
31979;DHT22;18502;43.574;1.276;2022-12-05T18:56:18;7.70;85.30
31979;DHT22;18502;43.574;1.276;2022-12-05T18:58:44;7.70;85.60
31979;DHT22;18502;43.574;1.276;2022-12-05T19:01:11;7.60;85.50
31979;DHT22;18502;43.574;1.276;2022-12-05T19:03:38;7.70;85.40
31979;DHT22;18502;43.574;1.276;2022-12-05T19:06:16;7.70;85.20
31979;DHT22;18502;43.574;1.276;2022-12-05T19:08:42;7.60;85.70
31979;DHT22;18502;43.574;1.276;2022-12-05T19:11:13;7.60;85.80
31979;DHT22;18502;43.574;1.276;2022-12-05T19:13:39;7.50;86.00
31979;DHT22;18502;43.574;1.276;2022-12-05T19:16:10;7.60;85.40
31979;DHT22;18502;43.574;1.276;2022-12-05T19:18:39;7.60;84.70
31979;DHT22;18502;43.574;1.276;2022-12-05T19:21:05;7.70;84.90
31979;DHT22;18502;43.574;1.276;2022-12-05T19:23:32;7.70;84.50
31979;DHT22;18502;43.574;1.276;2022-12-05T19:26:06;7.50;84.90
31979;DHT22;18502;43.574;1.276;2022-12-05T19:28:33;7.50;84.70
31979;DHT22;18502;43.574;1.276;2022-12-05T19:33:38;7.70;83.40
31979;DHT22;18502;43.574;1.276;2022-12-05T19:36:15;7.60;84.20
31979;DHT22;18502;43.574;1.276;2022-12-05T19:38:44;7.60;84.10
31979;DHT22;18502;43.574;1.276;2022-12-05T19:41:12;7.60;83.70
31979;DHT22;18502;43.574;1.276;2022-12-05T19:43:39;7.60;83.80
31979;DHT22;18502;43.574;1.276;2022-12-05T19:46:07;7.60;83.60
31979;DHT22;18502;43.574;1.276;2022-12-05T19:48:34;7.50;83.80
31979;DHT22;18502;43.574;1.276;2022-12-05T19:51:01;7.50;83.70
31979;DHT22;18502;43.574;1.276;2022-12-05T19:53:29;7.50;84.10
31979;DHT22;18502;43.574;1.276;2022-12-05T19:56:00;7.60;84.10
31979;DHT22;18502;43.574;1.276;2022-12-05T19:58:26;7.60;83.50
31979;DHT22;18502;43.574;1.276;2022-12-05T20:00:51;7.70;84.10
31979;DHT22;18502;43.574;1.276;2022-12-05T20:03:17;7.80;84.60
31979;DHT22;18502;43.574;1.276;2022-12-05T20:05:43;7.80;85.50
31979;DHT22;18502;43.574;1.276;2022-12-05T20:08:19;7.80;86.30
31979;DHT22;18502;43.574;1.276;2022-12-05T20:10:45;7.80;87.40
31979;DHT22;18502;43.574;1.276;2022-12-05T20:13:10;7.90;88.50
31979;DHT22;18502;43.574;1.276;2022-12-05T20:15:36;7.90;89.80
31979;DHT22;18502;43.574;1.276;2022-12-05T20:18:02;7.80;90.20
31979;DHT22;18502;43.574;1.276;2022-12-05T20:20:27;7.80;90.60
31979;DHT22;18502;43.574;1.276;2022-12-05T20:22:53;7.80;91.00
31979;DHT22;18502;43.574;1.276;2022-12-05T20:25:19;7.80;91.40
31979;DHT22;18502;43.574;1.276;2022-12-05T20:27:45;7.80;92.00
31979;DHT22;18502;43.574;1.276;2022-12-05T20:30:11;7.80;92.60
31979;DHT22;18502;43.574;1.276;2022-12-05T20:32:36;7.80;92.90
31979;DHT22;18502;43.574;1.276;2022-12-05T20:35:02;7.80;93.20
31979;DHT22;18502;43.574;1.276;2022-12-05T20:37:28;7.80;93.60
31979;DHT22;18502;43.574;1.276;2022-12-05T20:39:54;7.80;94.00
31979;DHT22;18502;43.574;1.276;2022-12-05T20:42:19;7.80;94.20
31979;DHT22;18502;43.574;1.276;2022-12-05T20:44:45;7.80;94.30
31979;DHT22;18502;43.574;1.276;2022-12-05T20:47:10;7.80;94.60
31979;DHT22;18502;43.574;1.276;2022-12-05T20:49:36;7.80;94.90
31979;DHT22;18502;43.574;1.276;2022-12-05T20:52:02;7.80;95.20
31979;DHT22;18502;43.574;1.276;2022-12-05T20:54:28;7.80;95.40
31979;DHT22;18502;43.574;1.276;2022-12-05T20:56:53;7.70;95.80
31979;DHT22;18502;43.574;1.276;2022-12-05T20:59:19;7.80;96.00
31979;DHT22;18502;43.574;1.276;2022-12-05T21:01:44;7.80;96.20
31979;DHT22;18502;43.574;1.276;2022-12-05T21:04:12;7.80;96.50
31979;DHT22;18502;43.574;1.276;2022-12-05T21:06:39;7.70;96.80
31979;DHT22;18502;43.574;1.276;2022-12-05T21:09:07;7.80;96.80
31979;DHT22;18502;43.574;1.276;2022-12-05T21:11:40;7.80;97.00
31979;DHT22;18502;43.574;1.276;2022-12-05T21:14:07;7.80;97.40
31979;DHT22;18502;43.574;1.276;2022-12-05T21:16:33;7.70;97.70
31979;DHT22;18502;43.574;1.276;2022-12-05T21:18:59;7.80;98.00
31979;DHT22;18502;43.574;1.276;2022-12-05T21:21:26;7.80;98.20
31979;DHT22;18502;43.574;1.276;2022-12-05T21:26:20;7.70;98.80
31979;DHT22;18502;43.574;1.276;2022-12-05T21:28:47;7.70;99.00
31979;DHT22;18502;43.574;1.276;2022-12-05T21:31:16;7.80;99.30
31979;DHT22;18502;43.574;1.276;2022-12-05T21:33:47;7.80;99.40
31979;DHT22;18502;43.574;1.276;2022-12-05T21:36:13;7.80;99.50
31979;DHT22;18502;43.574;1.276;2022-12-05T21:38:39;7.80;99.50
31979;DHT22;18502;43.574;1.276;2022-12-05T21:41:05;7.80;99.80
31979;DHT22;18502;43.574;1.276;2022-12-05T21:43:33;7.80;99.80
31979;DHT22;18502;43.574;1.276;2022-12-05T21:45:58;7.80;99.90
31979;DHT22;18502;43.574;1.276;2022-12-05T21:48:24;7.70;99.90
31979;DHT22;18502;43.574;1.276;2022-12-05T21:50:51;7.70;99.90
31979;DHT22;18502;43.574;1.276;2022-12-05T21:53:17;7.70;99.90
31979;DHT22;18502;43.574;1.276;2022-12-05T21:55:43;7.70;99.90
31979;DHT22;18502;43.574;1.276;2022-12-05T21:58:10;7.60;99.90
31979;DHT22;18502;43.574;1.276;2022-12-05T22:00:36;7.70;99.90
31979;DHT22;18502;43.574;1.276;2022-12-05T22:03:02;7.60;99.90
31979;DHT22;18502;43.574;1.276;2022-12-05T22:05:28;7.60;99.90
31979;DHT22;18502;43.574;1.276;2022-12-05T22:07:54;7.60;99.90
31979;DHT22;18502;43.574;1.276;2022-12-05T22:10:19;7.50;99.90
31979;DHT22;18502;43.574;1.276;2022-12-05T22:12:45;7.50;99.90
31979;DHT22;18502;43.574;1.276;2022-12-05T22:15:11;7.50;99.90
31979;DHT22;18502;43.574;1.276;2022-12-05T22:17:37;7.50;99.90
31979;DHT22;18502;43.574;1.276;2022-12-05T22:20:04;7.50;99.90
31979;DHT22;18502;43.574;1.276;2022-12-05T22:22:29;7.50;99.90
31979;DHT22;18502;43.574;1.276;2022-12-05T22:24:55;7.50;99.80
31979;DHT22;18502;43.574;1.276;2022-12-05T22:27:21;7.40;99.50
31979;DHT22;18502;43.574;1.276;2022-12-05T22:29:47;7.30;99.30
31979;DHT22;18502;43.574;1.276;2022-12-05T22:32:13;7.20;99.20
31979;DHT22;18502;43.574;1.276;2022-12-05T22:34:38;7.20;99.00
31979;DHT22;18502;43.574;1.276;2022-12-05T22:37:04;7.20;98.80
31979;DHT22;18502;43.574;1.276;2022-12-05T22:39:30;7.20;98.60
31979;DHT22;18502;43.574;1.276;2022-12-05T22:41:56;7.20;98.30
31979;DHT22;18502;43.574;1.276;2022-12-05T22:44:23;7.20;98.20
31979;DHT22;18502;43.574;1.276;2022-12-05T22:46:48;7.10;98.20
31979;DHT22;18502;43.574;1.276;2022-12-05T22:49:14;7.10;98.10
31979;DHT22;18502;43.574;1.276;2022-12-05T22:51:40;7.10;98.00
31979;DHT22;18502;43.574;1.276;2022-12-05T22:54:05;7.00;97.90
31979;DHT22;18502;43.574;1.276;2022-12-05T22:56:31;7.00;97.50
31979;DHT22;18502;43.574;1.276;2022-12-05T22:58:58;7.10;96.90
31979;DHT22;18502;43.574;1.276;2022-12-05T23:01:29;7.00;96.80
31979;DHT22;18502;43.574;1.276;2022-12-05T23:04:02;7.10;96.10
31979;DHT22;18502;43.574;1.276;2022-12-05T23:06:29;7.10;95.40
31979;DHT22;18502;43.574;1.276;2022-12-05T23:08:56;7.00;95.60
31979;DHT22;18502;43.574;1.276;2022-12-05T23:11:22;7.00;95.20
31979;DHT22;18502;43.574;1.276;2022-12-05T23:13:49;7.00;95.10
31979;DHT22;18502;43.574;1.276;2022-12-05T23:16:17;7.00;94.80
31979;DHT22;18502;43.574;1.276;2022-12-05T23:18:47;7.00;94.00
31979;DHT22;18502;43.574;1.276;2022-12-05T23:21:20;7.00;93.80
31979;DHT22;18502;43.574;1.276;2022-12-05T23:23:47;7.00;93.70
31979;DHT22;18502;43.574;1.276;2022-12-05T23:26:13;7.00;93.50
31979;DHT22;18502;43.574;1.276;2022-12-05T23:28:40;6.90;93.70
31979;DHT22;18502;43.574;1.276;2022-12-05T23:31:07;6.80;94.00
31979;DHT22;18502;43.574;1.276;2022-12-05T23:33:34;6.70;93.90
31979;DHT22;18502;43.574;1.276;2022-12-05T23:36:00;6.70;93.70
31979;DHT22;18502;43.574;1.276;2022-12-05T23:38:26;6.60;94.10
31979;DHT22;18502;43.574;1.276;2022-12-05T23:41:03;6.40;94.50
31979;DHT22;18502;43.574;1.276;2022-12-05T23:43:30;6.30;94.60
31979;DHT22;18502;43.574;1.276;2022-12-05T23:45:57;6.30;94.50
31979;DHT22;18502;43.574;1.276;2022-12-05T23:48:23;6.30;94.30
31979;DHT22;18502;43.574;1.276;2022-12-05T23:51:00;6.30;94.10
31979;DHT22;18502;43.574;1.276;2022-12-05T23:53:31;6.20;94.30
31979;DHT22;18502;43.574;1.276;2022-12-05T23:56:04;6.20;93.90
31979;DHT22;18502;43.574;1.276;2022-12-05T23:58:30;6.30;93.60
